Time;durP1;ratioP1;P1;durP2;ratioP2;P2;SDS_P1;SDS_P2;PMS_P1;PMS_P2;Temp;Humidity;BMP_temperature;BMP_pressure;BME280_temperature;BME280_humidity;BME280_pressure;Samples;Min_cycle;Max_cycle;Signal;HPM_P1;HPM_P2
2020/12/07 00:00:45;;;;;;;20.30;11.30;;;2.70;99.90;;;;;;4418194;32;20201;-74
2020/12/07 00:03:12;;;;;;;17.27;10.57;;;2.70;99.90;;;;;;4411459;32;20568;-75
2020/12/07 00:05:39;;;;;;;22.37;11.40;;;2.70;99.90;;;;;;4412649;32;20239;-75
2020/12/07 00:08:05;;;;;;;18.30;11.10;;;2.60;99.90;;;;;;4411725;32;20156;-75
2020/12/07 00:10:32;;;;;;;21.33;11.17;;;2.60;99.90;;;;;;4413097;32;20152;-74
2020/12/07 00:12:58;;;;;;;20.10;11.07;;;2.60;99.90;;;;;;4419178;32;20194;-74
2020/12/07 00:15:24;;;;;;;18.03;10.30;;;2.60;99.90;;;;;;4421625;32;20209;-76
2020/12/07 00:17:52;;;;;;;17.93;10.77;;;2.60;99.90;;;;;;4411907;32;20194;-75
2020/12/07 00:20:19;;;;;;;19.80;10.93;;;2.60;99.90;;;;;;4413363;32;20426;-76
2020/12/07 00:22:45;;;;;;;20.70;11.17;;;2.60;99.90;;;;;;4423143;32;20159;-76
2020/12/07 00:25:12;;;;;;;18.23;10.57;;;2.50;99.90;;;;;;4411733;32;20169;-76
2020/12/07 00:27:38;;;;;;;18.47;10.17;;;2.60;99.90;;;;;;4416078;32;20147;-76
2020/12/07 00:30:06;;;;;;;17.97;10.77;;;2.50;99.90;;;;;;4425555;32;20163;-76
2020/12/07 00:32:34;;;;;;;18.83;10.60;;;2.50;99.90;;;;;;4425459;32;20246;-75
2020/12/07 00:35:01;;;;;;;21.70;11.30;;;2.60;99.90;;;;;;4422692;32;20158;-74
2020/12/07 00:37:28;;;;;;;19.53;10.73;;;2.60;99.90;;;;;;4426221;32;20235;-74
2020/12/07 00:39:54;;;;;;;18.93;10.83;;;2.50;99.90;;;;;;4422064;32;20155;-75
2020/12/07 00:42:21;;;;;;;16.80;10.40;;;2.50;99.90;;;;;;4413899;32;20425;-74
2020/12/07 00:44:47;;;;;;;20.80;10.80;;;2.50;99.90;;;;;;4416026;32;20173;-74
2020/12/07 00:47:14;;;;;;;19.53;10.93;;;2.40;99.90;;;;;;4420882;32;20202;-74
2020/12/07 00:49:40;;;;;;;19.77;11.03;;;2.40;99.90;;;;;;4414066;32;20155;-74
2020/12/07 00:52:07;;;;;;;18.63;10.50;;;2.30;99.90;;;;;;4421523;32;20234;-74
2020/12/07 00:54:36;;;;;;;18.63;10.83;;;2.30;99.90;;;;;;4412727;32;20171;-74
2020/12/07 00:57:04;;;;;;;19.03;10.70;;;2.30;99.90;;;;;;4422784;32;20217;-74
2020/12/07 00:59:32;;;;;;;18.90;11.23;;;2.30;99.90;;;;;;4418421;32;20381;-74
2020/12/07 01:02:00;;;;;;;18.63;10.23;;;2.30;99.90;;;;;;4414259;32;20183;-74
2020/12/07 01:04:26;;;;;;;18.77;10.63;;;2.30;99.90;;;;;;4423658;32;20485;-74
2020/12/07 01:06:53;;;;;;;16.83;10.07;;;2.30;99.90;;;;;;4410521;32;20189;-74
2020/12/07 01:09:21;;;;;;;16.97;9.90;;;2.30;99.90;;;;;;4415124;32;20211;-74
2020/12/07 01:11:54;;;;;;;16.80;9.43;;;2.20;99.90;;;;;;4423238;32;20227;-74
2020/12/07 01:14:21;;;;;;;15.83;8.97;;;2.20;99.90;;;;;;4413463;32;20147;-74
2020/12/07 01:16:49;;;;;;;18.00;9.03;;;2.20;99.90;;;;;;4422284;32;20436;-74
2020/12/07 01:19:16;;;;;;;14.27;8.87;;;2.30;99.90;;;;;;4414576;32;20167;-75
2020/12/07 01:21:43;;;;;;;17.13;9.87;;;2.20;99.90;;;;;;4417374;32;20493;-74
2020/12/07 01:24:09;;;;;;;17.00;9.73;;;2.20;99.90;;;;;;4417283;32;20253;-78
2020/12/07 01:26:35;;;;;;;17.83;9.43;;;2.30;99.90;;;;;;4424701;32;20155;-75
2020/12/07 01:29:03;;;;;;;17.27;9.43;;;2.30;99.90;;;;;;4412673;32;20212;-75
2020/12/07 01:31:30;;;;;;;15.77;9.13;;;2.20;99.90;;;;;;4415215;32;20206;-74
2020/12/07 01:33:57;;;;;;;15.00;9.30;;;2.20;99.90;;;;;;4424121;32;20430;-74
2020/12/07 01:36:24;;;;;;;16.90;9.73;;;2.20;99.90;;;;;;4424086;32;20151;-74
2020/12/07 01:38:50;;;;;;;16.97;10.03;;;2.30;99.90;;;;;;4412070;32;20570;-75
2020/12/07 01:41:18;;;;;;;17.00;9.60;;;2.30;99.90;;;;;;4411434;32;20525;-76
2020/12/07 01:43:46;;;;;;;17.87;10.03;;;2.30;99.90;;;;;;4417238;32;20463;-75
2020/12/07 01:46:20;;;;;;;17.33;10.10;;;2.30;99.90;;;;;;4419135;32;20162;-75
2020/12/07 01:48:47;;;;;;;15.97;9.13;;;2.30;99.90;;;;;;4411931;32;20190;-76
2020/12/07 01:51:15;;;;;;;16.23;9.60;;;2.30;99.90;;;;;;4423391;32;20159;-76
2020/12/07 01:53:43;;;;;;;15.90;9.83;;;2.20;99.90;;;;;;4417526;32;20147;-75
2020/12/07 01:56:18;;;;;;;14.53;8.87;;;2.20;99.90;;;;;;4424586;32;20266;-75
2020/12/07 01:58:45;;;;;;;14.77;8.20;;;2.10;99.90;;;;;;4411784;32;20155;-74
2020/12/07 02:01:11;;;;;;;14.00;8.43;;;2.10;99.90;;;;;;4420966;32;20163;-75
2020/12/07 02:03:38;;;;;;;13.07;7.70;;;2.00;99.90;;;;;;4416345;32;20413;-75
2020/12/07 02:06:05;;;;;;;14.20;7.77;;;2.00;99.90;;;;;;4414464;32;20152;-75
2020/12/07 02:08:31;;;;;;;15.20;8.10;;;2.00;99.90;;;;;;4421794;32;20472;-74
2020/12/07 02:10:58;;;;;;;13.43;7.70;;;2.00;99.90;;;;;;4413571;32;20143;-75
2020/12/07 02:13:24;;;;;;;12.77;8.07;;;2.00;99.90;;;;;;4418576;32;20178;-74
2020/12/07 02:15:51;;;;;;;13.07;7.47;;;2.00;99.90;;;;;;4417633;32;20479;-75
2020/12/07 02:18:17;;;;;;;12.90;7.90;;;1.90;99.90;;;;;;4414509;32;20418;-74
2020/12/07 02:20:48;;;;;;;12.50;7.73;;;1.90;99.90;;;;;;4423005;32;20215;-75
2020/12/07 02:23:15;;;;;;;12.00;7.63;;;1.90;99.90;;;;;;4413682;32;20208;-75
2020/12/07 02:25:42;;;;;;;15.50;8.03;;;1.90;99.90;;;;;;4416643;32;20156;-75
2020/12/07 02:28:09;;;;;;;14.73;8.27;;;1.90;99.90;;;;;;4419509;32;20497;-75
2020/12/07 02:30:36;;;;;;;13.93;8.70;;;1.90;99.90;;;;;;4411506;32;20147;-74
2020/12/07 02:33:03;;;;;;;14.70;8.30;;;1.90;99.90;;;;;;4420102;32;20159;-75
2020/12/07 02:35:30;;;;;;;18.07;8.67;;;1.90;99.90;;;;;;4413609;32;20513;-75
2020/12/07 02:37:56;;;;;;;15.83;8.50;;;1.90;99.90;;;;;;4415014;32;20150;-75
2020/12/07 02:40:23;;;;;;;16.33;7.67;;;1.90;99.90;;;;;;4421007;32;20166;-75
2020/12/07 02:42:49;;;;;;;15.03;8.73;;;1.90;99.90;;;;;;4423602;32;20185;-74
2020/12/07 02:45:17;;;;;;;15.63;9.03;;;1.90;99.90;;;;;;4418282;32;20155;-75
2020/12/07 02:47:45;;;;;;;16.40;9.20;;;1.90;99.90;;;;;;4419386;32;20174;-75
2020/12/07 02:50:13;;;;;;;16.37;8.33;;;1.80;99.90;;;;;;4422345;32;20205;-75
2020/12/07 02:52:40;;;;;;;16.27;8.77;;;1.80;99.90;;;;;;4414451;32;20179;-75
2020/12/07 02:55:08;;;;;;;15.70;9.27;;;1.80;99.90;;;;;;4423281;32;20164;-75
2020/12/07 02:57:35;;;;;;;14.60;8.47;;;1.80;99.90;;;;;;4418218;32;20433;-74
2020/12/07 03:00:02;;;;;;;13.27;8.13;;;1.80;99.90;;;;;;4426467;32;20151;-75
2020/12/07 03:02:29;;;;;;;15.17;8.27;;;1.80;99.90;;;;;;4424435;32;20249;-75
2020/12/07 03:04:55;;;;;;;14.03;8.27;;;1.90;99.90;;;;;;4424700;32;20155;-74
2020/12/07 03:07:22;;;;;;;12.77;8.20;;;1.90;99.90;;;;;;4426798;32;20146;-75
2020/12/07 03:09:48;;;;;;;14.67;9.10;;;1.90;99.90;;;;;;4418604;32;20533;-75
2020/12/07 03:12:15;;;;;;;12.77;8.53;;;1.90;99.90;;;;;;4422462;32;20150;-75
2020/12/07 03:14:41;;;;;;;13.63;8.37;;;1.90;99.90;;;;;;4414188;32;20412;-74
2020/12/07 03:17:07;;;;;;;13.77;8.97;;;1.80;99.90;;;;;;4422564;32;20198;-74
2020/12/07 03:19:34;;;;;;;14.20;8.57;;;1.80;99.90;;;;;;4419714;32;20174;-74
2020/12/07 03:22:01;;;;;;;15.20;7.70;;;1.80;99.90;;;;;;4418555;32;20176;-75
2020/12/07 03:24:27;;;;;;;14.23;8.13;;;1.80;99.90;;;;;;4423779;32;20165;-76
2020/12/07 03:26:54;;;;;;;11.93;8.23;;;1.80;99.90;;;;;;4413968;32;20203;-74
2020/12/07 03:29:20;;;;;;;14.40;8.20;;;1.80;99.90;;;;;;4421267;32;20453;-74
2020/12/07 03:31:47;;;;;;;14.37;8.40;;;1.80;99.90;;;;;;4419455;32;20257;-75
2020/12/07 03:34:13;;;;;;;14.67;8.40;;;1.80;99.90;;;;;;4415736;32;20147;-74
2020/12/07 03:36:41;;;;;;;14.53;8.53;;;1.70;99.90;;;;;;4424798;32;20585;-74
2020/12/07 03:39:08;;;;;;;13.37;8.37;;;1.80;99.90;;;;;;4415489;32;20155;-74
2020/12/07 03:41:35;;;;;;;14.13;8.23;;;1.80;99.90;;;;;;4424913;32;20177;-74
2020/12/07 03:44:01;;;;;;;11.83;8.03;;;1.80;99.90;;;;;;4426371;32;20177;-74
2020/12/07 03:46:27;;;;;;;11.87;8.20;;;1.70;99.90;;;;;;4424722;32;20222;-75
2020/12/07 03:48:55;;;;;;;13.03;7.80;;;1.70;99.90;;;;;;4427562;32;20235;-74
2020/12/07 03:51:21;;;;;;;12.40;8.00;;;1.70;99.90;;;;;;4425966;32;20403;-74
2020/12/07 03:53:47;;;;;;;11.77;7.23;;;1.70;99.90;;;;;;4418091;32;20412;-74
2020/12/07 03:56:14;;;;;;;12.27;7.40;;;1.80;99.90;;;;;;4422635;32;20404;-74
2020/12/07 03:58:41;;;;;;;11.03;7.20;;;1.80;99.90;;;;;;4413514;32;20210;-73
2020/12/07 04:01:09;;;;;;;10.97;7.67;;;1.80;99.90;;;;;;4422140;32;20162;-73
2020/12/07 04:03:37;;;;;;;10.97;7.37;;;1.80;99.90;;;;;;4417712;32;20204;-73
2020/12/07 04:06:17;;;;;;;11.73;7.47;;;1.80;99.90;;;;;;4416401;32;20182;-73
2020/12/07 04:08:44;;;;;;;13.00;6.87;;;1.80;99.90;;;;;;4425066;32;20165;-73
2020/12/07 04:11:10;;;;;;;10.50;6.93;;;1.80;99.90;;;;;;4416616;32;20212;-73
2020/12/07 04:13:37;;;;;;;10.67;7.30;;;1.70;99.90;;;;;;4418349;32;20143;-73
2020/12/07 04:16:03;;;;;;;10.90;7.13;;;1.70;99.90;;;;;;4420509;32;20389;-74
2020/12/07 04:18:30;;;;;;;11.50;6.80;;;1.70;99.90;;;;;;4413246;32;20229;-74
2020/12/07 04:21:00;;;;;;;11.27;7.13;;;1.70;99.90;;;;;;4424142;32;20225;-74
2020/12/07 04:23:28;;;;;;;9.53;6.40;;;1.70;99.90;;;;;;4416961;32;20180;-74
2020/12/07 04:25:55;;;;;;;12.67;6.97;;;1.60;99.90;;;;;;4416918;32;20232;-74
2020/12/07 04:28:23;;;;;;;11.17;6.63;;;1.60;99.90;;;;;;4421226;32;20216;-74
2020/12/07 04:30:49;;;;;;;10.47;6.67;;;1.70;99.90;;;;;;4414084;32;20610;-74
2020/12/07 04:33:16;;;;;;;10.53;6.80;;;1.70;99.90;;;;;;4420611;32;20177;-74
2020/12/07 04:35:42;;;;;;;10.93;6.50;;;1.70;99.90;;;;;;4418071;32;20151;-74
2020/12/07 04:38:09;;;;;;;10.23;6.30;;;1.60;99.90;;;;;;4414640;32;20211;-75
2020/12/07 04:40:36;;;;;;;9.77;6.10;;;1.60;99.90;;;;;;4423195;32;20174;-75
2020/12/07 04:43:03;;;;;;;10.10;6.63;;;1.70;99.90;;;;;;4424298;32;20159;-74
2020/12/07 04:45:30;;;;;;;10.97;6.90;;;1.70;99.90;;;;;;4424710;32;20206;-74
2020/12/07 04:47:59;;;;;;;12.57;6.70;;;1.60;99.90;;;;;;4426456;32;20547;-74
2020/12/07 04:50:29;;;;;;;10.83;7.03;;;1.60;99.90;;;;;;4424840;32;20155;-74
2020/12/07 04:52:58;;;;;;;11.57;6.97;;;1.70;99.90;;;;;;4425359;32;20208;-75
2020/12/07 04:55:28;;;;;;;9.97;6.57;;;1.70;99.90;;;;;;4424895;32;20190;-75
2020/12/07 04:57:56;;;;;;;11.57;6.90;;;1.60;99.90;;;;;;4425557;32;20181;-75
2020/12/07 05:00:25;;;;;;;10.87;6.43;;;1.60;99.90;;;;;;4425447;32;20159;-75
2020/12/07 05:02:54;;;;;;;13.83;6.87;;;1.60;99.90;;;;;;4424210;32;20158;-75
2020/12/07 05:05:21;;;;;;;11.23;6.73;;;1.60;99.90;;;;;;4425463;32;20230;-75
2020/12/07 05:07:49;;;;;;;10.40;6.87;;;1.60;99.90;;;;;;4426833;32;20204;-75
2020/12/07 05:10:22;;;;;;;12.27;7.17;;;1.70;99.90;;;;;;4424811;32;20162;-75
2020/12/07 05:12:54;;;;;;;11.70;7.00;;;1.70;99.90;;;;;;4424870;32;20181;-75
2020/12/07 05:15:22;;;;;;;10.97;6.80;;;1.60;99.90;;;;;;4425860;32;20174;-75
2020/12/07 05:17:56;;;;;;;10.80;7.17;;;1.70;99.90;;;;;;4425206;32;20444;-75
2020/12/07 05:20:24;;;;;;;10.77;6.57;;;1.60;99.90;;;;;;4424971;32;20158;-75
2020/12/07 05:22:51;;;;;;;12.03;6.87;;;1.60;99.90;;;;;;4425191;32;20135;-74
2020/12/07 05:25:18;;;;;;;11.23;6.67;;;1.60;99.90;;;;;;4426631;32;20173;-75
2020/12/07 05:27:46;;;;;;;11.70;7.73;;;1.60;99.90;;;;;;4411775;32;20167;-74
2020/12/07 05:30:25;;;;;;;10.77;6.90;;;1.60;99.90;;;;;;4416538;32;20162;-75
2020/12/07 05:32:52;;;;;;;12.33;7.43;;;1.60;99.90;;;;;;4425001;32;20162;-75
2020/12/07 05:35:19;;;;;;;12.87;7.40;;;1.60;99.90;;;;;;4424941;32;20183;-75
2020/12/07 05:37:45;;;;;;;11.93;7.50;;;1.60;99.90;;;;;;4424401;32;20178;-75
2020/12/07 05:40:13;;;;;;;13.00;7.90;;;1.50;99.90;;;;;;4424139;32;20150;-75
2020/12/07 05:42:41;;;;;;;11.03;7.43;;;1.50;99.90;;;;;;4425000;32;20197;-75
2020/12/07 05:45:10;;;;;;;10.80;7.00;;;1.50;99.90;;;;;;4424816;32;20490;-75
2020/12/07 05:47:40;;;;;;;12.17;7.40;;;1.50;99.90;;;;;;4424799;32;20151;-75
2020/12/07 05:50:09;;;;;;;11.07;7.33;;;1.60;99.90;;;;;;4425399;32;20443;-75
2020/12/07 05:52:47;;;;;;;14.73;8.07;;;1.60;99.90;;;;;;4424280;32;20147;-75
2020/12/07 05:55:18;;;;;;;12.00;7.87;;;1.60;99.90;;;;;;4426258;32;20195;-75
2020/12/07 05:58:06;;;;;;;12.00;7.77;;;1.60;99.90;;;;;;4426424;32;20207;-75
2020/12/07 06:00:35;;;;;;;12.60;8.03;;;1.60;99.90;;;;;;4424927;32;20219;-75
2020/12/07 06:03:04;;;;;;;12.90;7.90;;;1.50;99.90;;;;;;4424686;32;20466;-75
2020/12/07 06:05:31;;;;;;;12.27;7.90;;;1.50;99.90;;;;;;4424066;32;20169;-75
2020/12/07 06:08:06;;;;;;;12.27;7.67;;;1.50;99.90;;;;;;4425516;32;20154;-75
2020/12/07 06:10:40;;;;;;;12.77;7.80;;;1.60;99.90;;;;;;4424604;32;20268;-74
2020/12/07 06:13:20;;;;;;;15.10;8.10;;;1.50;99.90;;;;;;4426284;32;20147;-75
2020/12/07 06:15:51;;;;;;;14.03;8.27;;;1.60;99.90;;;;;;4425880;32;20134;-75
2020/12/07 06:18:44;;;;;;;13.97;8.30;;;1.60;99.90;;;;;;4424430;32;20363;-75
2020/12/07 06:21:16;;;;;;;15.97;8.10;;;1.60;99.90;;;;;;4423462;32;20178;-74
2020/12/07 06:23:44;;;;;;;13.23;7.80;;;1.60;99.90;;;;;;4424471;32;20377;-74
2020/12/07 06:26:13;;;;;;;14.87;8.40;;;1.60;99.90;;;;;;4424426;32;20151;-74
2020/12/07 06:28:42;;;;;;;14.87;8.23;;;1.50;99.90;;;;;;4424456;32;20178;-74
2020/12/07 06:31:17;;;;;;;12.63;7.80;;;1.50;99.90;;;;;;4424263;32;20202;-74
2020/12/07 06:33:50;;;;;;;12.73;7.50;;;1.50;99.90;;;;;;4424684;32;20146;-74
2020/12/07 06:36:34;;;;;;;12.33;7.30;;;1.50;99.90;;;;;;4425620;32;20151;-74
2020/12/07 06:39:09;;;;;;;12.27;6.90;;;1.50;99.90;;;;;;4424554;32;20174;-74
2020/12/07 06:41:44;;;;;;;11.80;7.27;;;1.50;99.90;;;;;;4424787;32;20141;-75
2020/12/07 06:44:13;;;;;;;11.47;7.43;;;1.50;99.90;;;;;;4423244;32;20238;-74
2020/12/07 06:46:46;;;;;;;12.20;6.83;;;1.50;99.90;;;;;;4425681;32;20212;-75
2020/12/07 06:49:13;;;;;;;12.87;6.93;;;1.50;99.90;;;;;;4424311;32;20462;-75
2020/12/07 06:51:42;;;;;;;13.33;7.00;;;1.50;99.90;;;;;;4424182;32;20242;-74
2020/12/07 06:55:03;;;;;;;12.30;7.50;;;1.60;99.90;;;;;;4423880;32;20166;-75
2020/12/07 06:57:22;;;;;;;12.57;7.20;;;1.50;99.90;;;;;;4425919;32;20186;-75
2020/12/07 07:00:00;;;;;;;13.50;6.63;;;1.60;99.90;;;;;;4424844;32;20227;-75
2020/12/07 07:02:28;;;;;;;15.80;7.10;;;1.60;99.90;;;;;;4425508;32;20154;-75
2020/12/07 07:05:00;;;;;;;12.60;6.57;;;1.60;99.90;;;;;;4425476;32;20472;-74
2020/12/07 07:07:29;;;;;;;11.93;7.00;;;1.60;99.90;;;;;;4423879;32;20365;-75
2020/12/07 07:09:56;;;;;;;12.47;6.90;;;1.50;99.90;;;;;;4425523;32;20151;-76
2020/12/07 07:12:23;;;;;;;13.03;6.90;;;1.50;99.90;;;;;;4424846;32;20413;-74
2020/12/07 07:14:55;;;;;;;12.30;7.40;;;1.50;99.90;;;;;;4425520;32;20453;-74
2020/12/07 07:17:24;;;;;;;10.37;7.10;;;1.50;99.90;;;;;;4425720;32;20193;-74
2020/12/07 07:19:50;;;;;;;12.40;7.23;;;1.60;99.90;;;;;;4423996;32;20161;-74
2020/12/07 07:22:17;;;;;;;13.23;7.20;;;1.60;99.90;;;;;;4423866;32;20191;-74
2020/12/07 07:24:54;;;;;;;12.00;6.97;;;1.60;99.90;;;;;;4424217;32;20182;-74
2020/12/07 07:30:06;;;;;;;10.27;6.47;;;1.70;99.90;;;;;;4426590;32;20147;-74
2020/12/07 07:32:33;;;;;;;12.03;6.63;;;1.70;99.90;;;;;;4426587;32;20189;-74
2020/12/07 07:35:00;;;;;;;11.10;6.83;;;1.60;99.90;;;;;;4426758;32;20175;-74
2020/12/07 07:37:26;;;;;;;12.50;7.00;;;1.60;99.90;;;;;;4426983;32;20143;-74
2020/12/07 07:40:17;;;;;;;12.37;6.97;;;1.60;99.90;;;;;;4426558;32;20151;-73
2020/12/07 07:42:48;;;;;;;12.13;6.60;;;1.50;99.90;;;;;;4427532;32;20143;-74
2020/12/07 07:45:24;;;;;;;9.67;6.20;;;1.50;99.90;;;;;;4427999;32;20139;-74
2020/12/07 07:48:10;;;;;;;11.03;6.70;;;1.50;99.90;;;;;;4428020;32;20147;-74
2020/12/07 08:11:42;;;;;;;10.13;5.80;;;1.90;99.90;;;;;;4428015;32;20166;-75
2020/12/07 08:16:22;;;;;;;11.07;5.83;;;1.90;99.90;;;;;;4426828;32;20387;-75
2020/12/07 08:18:54;;;;;;;9.27;5.37;;;1.90;99.90;;;;;;4413508;32;20165;-74
2020/12/07 08:21:31;;;;;;;18.43;6.13;;;1.80;99.90;;;;;;4426474;32;20552;-75
2020/12/07 08:24:09;;;;;;;9.97;6.03;;;1.80;99.90;;;;;;4415242;32;20213;-75
2020/12/07 08:26:42;;;;;;;16.07;6.37;;;1.80;99.90;;;;;;4423054;32;20188;-75
2020/12/07 08:29:10;;;;;;;9.97;5.70;;;1.80;99.90;;;;;;4416946;32;20182;-75
2020/12/07 08:31:37;;;;;;;9.70;5.90;;;1.90;99.90;;;;;;4417643;32;20423;-74
2020/12/07 08:34:15;;;;;;;10.17;5.83;;;1.80;99.90;;;;;;4421245;32;20206;-75
2020/12/07 08:36:44;;;;;;;11.40;5.93;;;1.90;99.90;;;;;;4413054;32;20258;-78
2020/12/07 08:39:11;;;;;;;10.50;5.90;;;1.80;99.90;;;;;;4420318;32;20210;-74
2020/12/07 08:41:37;;;;;;;12.97;6.80;;;1.90;99.90;;;;;;4417801;32;20518;-74
2020/12/07 08:44:08;;;;;;;14.63;7.40;;;1.80;99.90;;;;;;4422003;32;20155;-74
2020/12/07 08:46:38;;;;;;;10.37;5.97;;;1.90;99.90;;;;;;4423623;32;20605;-74
2020/12/07 08:49:06;;;;;;;11.07;5.93;;;2.00;99.90;;;;;;4426595;32;20190;-75
2020/12/07 08:51:36;;;;;;;15.23;5.77;;;2.00;99.80;;;;;;4417752;32;20151;-74
2020/12/07 08:54:04;;;;;;;12.97;6.00;;;2.00;99.50;;;;;;4420880;32;20477;-74
2020/12/07 08:56:31;;;;;;;14.63;6.20;;;2.00;99.40;;;;;;4412657;32;20549;-74
2020/12/07 08:58:57;;;;;;;11.60;6.13;;;2.10;99.50;;;;;;4421183;32;20215;-75
2020/12/07 09:01:24;;;;;;;11.90;5.93;;;2.20;98.80;;;;;;4417754;32;20213;-75
2020/12/07 09:03:50;;;;;;;11.27;5.70;;;2.10;98.30;;;;;;4415679;32;20198;-76
2020/12/07 09:06:17;;;;;;;12.10;6.00;;;2.10;98.40;;;;;;4422025;32;20200;-75
2020/12/07 09:08:44;;;;;;;11.80;5.60;;;2.10;97.60;;;;;;4412201;32;20159;-75
2020/12/07 09:11:13;;;;;;;8.80;5.50;;;2.10;97.90;;;;;;4419797;32;20253;-75
2020/12/07 09:13:41;;;;;;;14.57;5.67;;;2.10;98.10;;;;;;4419438;32;20181;-75
2020/12/07 09:16:08;;;;;;;12.93;6.10;;;2.10;98.20;;;;;;4413624;32;20172;-74
2020/12/07 09:18:35;;;;;;;12.00;5.90;;;2.10;98.00;;;;;;4423618;32;20162;-73
2020/12/07 09:21:06;;;;;;;12.90;5.93;;;2.10;98.00;;;;;;4413738;32;20163;-74
2020/12/07 09:23:34;;;;;;;17.77;6.20;;;2.10;97.90;;;;;;4417619;32;20411;-73
2020/12/07 09:26:04;;;;;;;10.30;5.80;;;2.10;97.80;;;;;;4419921;32;20178;-74
2020/12/07 09:28:31;;;;;;;14.60;6.23;;;2.00;97.70;;;;;;4413300;32;20147;-73
2020/12/07 09:30:57;;;;;;;10.00;5.50;;;2.00;97.60;;;;;;4420653;32;20178;-74
2020/12/07 09:33:24;;;;;;;10.27;5.63;;;1.90;97.80;;;;;;4417370;32;20427;-75
2020/12/07 09:35:51;;;;;;;11.37;6.10;;;2.00;98.10;;;;;;4415312;32;20150;-75
2020/12/07 09:38:17;;;;;;;11.67;5.97;;;2.00;97.90;;;;;;4421576;32;20509;-74
2020/12/07 09:40:43;;;;;;;14.23;6.57;;;2.00;97.90;;;;;;4412414;32;20167;-75
2020/12/07 09:43:10;;;;;;;13.00;6.43;;;2.00;97.80;;;;;;4420794;32;20246;-74
2020/12/07 09:45:36;;;;;;;12.33;5.97;;;2.10;97.60;;;;;;4417281;32;20162;-74
2020/12/07 09:48:03;;;;;;;11.40;5.70;;;2.20;97.30;;;;;;4413702;32;20151;-74
2020/12/07 09:50:34;;;;;;;10.30;5.87;;;2.20;97.00;;;;;;4422942;32;20197;-74
2020/12/07 09:53:02;;;;;;;13.47;6.00;;;2.20;97.00;;;;;;4414534;32;20418;-74
2020/12/07 09:55:29;;;;;;;11.97;5.63;;;2.20;96.90;;;;;;4418890;32;20556;-74
2020/12/07 09:57:55;;;;;;;12.90;5.53;;;2.20;96.80;;;;;;4419079;32;20155;-74
2020/12/07 10:00:22;;;;;;;13.10;6.00;;;2.20;97.00;;;;;;4412592;32;20158;-73
2020/12/07 10:02:48;;;;;;;10.83;6.20;;;2.20;96.90;;;;;;4421560;32;20143;-74
2020/12/07 10:05:15;;;;;;;12.97;5.83;;;2.20;96.80;;;;;;4413432;32;20174;-75
2020/12/07 10:07:41;;;;;;;11.07;5.67;;;2.20;96.70;;;;;;4416185;32;20158;-73
2020/12/07 10:10:08;;;;;;;10.57;5.67;;;2.20;96.90;;;;;;4419325;32;20147;-72
2020/12/07 10:12:34;;;;;;;12.37;6.00;;;2.20;96.60;;;;;;4410679;32;20396;-75
2020/12/07 10:15:03;;;;;;;11.27;5.73;;;2.20;96.70;;;;;;4420558;32;20186;-75
2020/12/07 10:17:29;;;;;;;12.30;5.97;;;2.20;96.80;;;;;;4416686;32;20238;-73
2020/12/07 10:19:56;;;;;;;13.70;6.03;;;2.20;96.60;;;;;;4414931;32;20147;-74
2020/12/07 10:22:22;;;;;;;10.70;5.90;;;2.20;96.60;;;;;;4421031;32;20525;-73
2020/12/07 10:24:49;;;;;;;11.30;5.50;;;2.20;96.20;;;;;;4411583;32;20143;-75
2020/12/07 10:27:15;;;;;;;11.33;5.40;;;2.10;96.40;;;;;;4418211;32;20147;-74
2020/12/07 10:29:42;;;;;;;11.73;5.60;;;2.20;96.20;;;;;;4416926;32;20151;-73
2020/12/07 10:32:08;;;;;;;12.97;6.23;;;2.10;96.30;;;;;;4412291;32;20174;-75
2020/12/07 10:34:35;;;;;;;11.67;5.97;;;2.10;96.40;;;;;;4421209;32;20193;-74
2020/12/07 10:37:01;;;;;;;10.77;5.43;;;2.10;96.50;;;;;;4416332;32;20172;-72
2020/12/07 10:39:28;;;;;;;16.23;5.90;;;2.20;95.90;;;;;;4415646;32;20151;-73
2020/12/07 10:41:54;;;;;;;11.90;6.10;;;2.30;95.70;;;;;;4413398;32;20183;-74
2020/12/07 10:44:21;;;;;;;10.13;5.80;;;2.40;95.70;;;;;;4421243;32;20226;-72
2020/12/07 10:46:50;;;;;;;11.37;5.80;;;2.50;95.40;;;;;;4412231;32;20573;-74
2020/12/07 10:49:16;;;;;;;12.50;6.07;;;2.50;95.20;;;;;;4417960;32;20151;-74
2020/12/07 10:51:45;;;;;;;12.50;5.97;;;2.50;94.90;;;;;;4418651;32;20150;-73
2020/12/07 10:54:12;;;;;;;9.97;5.70;;;2.60;94.80;;;;;;4412230;32;20143;-74
2020/12/07 10:56:38;;;;;;;13.47;5.97;;;2.60;94.70;;;;;;4421645;32;20473;-74
2020/12/07 10:59:04;;;;;;;9.40;5.23;;;2.70;94.40;;;;;;4413162;32;20202;-73
2020/12/07 11:01:31;;;;;;;11.47;5.67;;;2.70;94.40;;;;;;4417168;32;20174;-74
2020/12/07 11:03:57;;;;;;;11.57;5.77;;;2.70;94.20;;;;;;4421703;32;20388;-74
2020/12/07 11:06:29;;;;;;;12.60;5.67;;;2.80;94.00;;;;;;4413576;32;20174;-75
2020/12/07 11:08:58;;;;;;;10.97;6.00;;;2.80;94.10;;;;;;4424412;32;20148;-75
2020/12/07 11:11:25;;;;;;;11.83;6.13;;;2.80;94.10;;;;;;4419363;32;20468;-74
2020/12/07 11:13:51;;;;;;;11.40;5.43;;;2.90;93.80;;;;;;4417211;32;20152;-75
2020/12/07 11:16:24;;;;;;;11.30;5.67;;;3.00;93.60;;;;;;4422924;32;20495;-73
2020/12/07 11:18:52;;;;;;;15.63;6.07;;;3.00;93.30;;;;;;4411030;32;20482;-75
2020/12/07 11:21:19;;;;;;;10.37;5.73;;;3.00;93.20;;;;;;4410608;32;20167;-74
2020/12/07 11:23:47;;;;;;;11.97;5.83;;;2.90;93.30;;;;;;4412684;32;20267;-72
2020/12/07 11:26:15;;;;;;;12.30;5.80;;;2.90;93.40;;;;;;4424119;32;20248;-74
2020/12/07 11:28:43;;;;;;;13.23;6.03;;;3.00;93.40;;;;;;4414858;32;20242;-74
2020/12/07 11:31:13;;;;;;;12.40;5.53;;;3.10;93.20;;;;;;4411745;32;20167;-73
2020/12/07 11:33:40;;;;;;;13.03;5.70;;;3.30;93.00;;;;;;4427671;32;20177;-72
2020/12/07 11:36:14;;;;;;;10.20;5.43;;;3.70;92.10;;;;;;4425876;32;20163;-74
2020/12/07 11:38:47;;;;;;;10.13;5.27;;;4.20;90.90;;;;;;4426627;32;20187;-74
2020/12/07 11:46:31;;;;;;;10.47;5.40;;;4.80;87.10;;;;;;4426514;32;20166;-73
2020/12/07 11:48:57;;;;;;;12.17;5.73;;;5.10;85.90;;;;;;4427841;32;20412;-74
2020/12/07 11:51:27;;;;;;;11.13;5.40;;;4.90;85.50;;;;;;4426919;32;20166;-72
2020/12/07 11:53:55;;;;;;;9.30;5.20;;;4.80;85.40;;;;;;4428103;32;20155;-73
2020/12/07 11:56:33;;;;;;;10.87;5.23;;;4.60;86.00;;;;;;4420455;32;20527;-75
2020/12/07 11:59:00;;;;;;;12.30;5.77;;;4.30;87.20;;;;;;4422576;32;20489;-73
2020/12/07 12:01:29;;;;;;;11.13;5.73;;;4.10;88.10;;;;;;4411369;32;20158;-73
2020/12/07 12:03:55;;;;;;;9.57;5.57;;;3.90;88.90;;;;;;4414444;32;20482;-74
2020/12/07 12:06:27;;;;;;;10.93;6.00;;;3.70;89.80;;;;;;4426143;32;20144;-74
2020/12/07 12:08:54;;;;;;;11.77;5.90;;;3.70;90.10;;;;;;4427331;32;20155;-73
2020/12/07 12:11:30;;;;;;;11.70;5.60;;;3.60;90.50;;;;;;4427039;32;20511;-75
2020/12/07 12:13:58;;;;;;;10.53;5.80;;;3.40;90.80;;;;;;4427190;32;20191;-72
2020/12/07 12:16:27;;;;;;;12.23;5.57;;;3.30;90.90;;;;;;4425935;32;20148;-74
2020/12/07 12:19:03;;;;;;;11.43;5.93;;;3.20;91.10;;;;;;4425989;32;20155;-74
2020/12/07 12:21:30;;;;;;;13.47;5.73;;;3.10;91.30;;;;;;4425631;32;20202;-73
2020/12/07 12:23:59;;;;;;;15.30;5.90;;;3.10;91.40;;;;;;4424893;32;20208;-76
2020/12/07 12:26:25;;;;;;;10.27;5.93;;;3.00;91.50;;;;;;4425934;32;20251;-73
2020/12/07 12:28:52;;;;;;;10.43;5.87;;;3.00;91.70;;;;;;4425504;32;20268;-74
2020/12/07 12:31:19;;;;;;;11.20;6.07;;;3.00;91.70;;;;;;4427108;32;20214;-74
2020/12/07 12:33:46;;;;;;;11.27;5.87;;;2.90;91.80;;;;;;4426934;32;20200;-74
2020/12/07 12:36:19;;;;;;;11.23;6.27;;;2.90;91.90;;;;;;4427414;32;20500;-74
2020/12/07 12:38:46;;;;;;;12.27;5.73;;;2.90;92.00;;;;;;4425045;32;20432;-74
2020/12/07 12:41:14;;;;;;;10.97;5.73;;;2.90;92.10;;;;;;4425268;32;20205;-74
2020/12/07 12:43:41;;;;;;;11.50;5.63;;;2.90;92.10;;;;;;4425924;32;20180;-73
2020/12/07 12:46:08;;;;;;;12.47;6.00;;;2.90;92.30;;;;;;4426409;32;20191;-74
2020/12/07 12:48:36;;;;;;;12.90;6.03;;;2.90;92.60;;;;;;4425689;32;20163;-73
2020/12/07 12:51:07;;;;;;;14.03;6.63;;;2.90;92.50;;;;;;4426952;32;20457;-73
2020/12/07 12:53:35;;;;;;;14.20;6.27;;;2.90;92.40;;;;;;4425574;32;20147;-74
2020/12/07 12:56:04;;;;;;;16.10;6.93;;;2.90;92.20;;;;;;4424707;32;20541;-75
2020/12/07 12:58:31;;;;;;;12.57;6.53;;;3.10;92.20;;;;;;4424332;32;20211;-73
2020/12/07 13:00:58;;;;;;;14.83;7.07;;;3.10;91.70;;;;;;4425090;32;20223;-73
2020/12/07 13:03:24;;;;;;;15.77;6.40;;;3.20;91.80;;;;;;4425414;32;20161;-73
2020/12/07 13:05:53;;;;;;;14.20;6.17;;;3.20;91.70;;;;;;4426603;32;20197;-74
2020/12/07 13:08:19;;;;;;;14.33;6.17;;;3.40;91.30;;;;;;4425085;32;20147;-74
2020/12/07 13:10:50;;;;;;;15.10;6.20;;;3.60;90.90;;;;;;4424763;32;20155;-75
2020/12/07 13:13:17;;;;;;;13.10;6.43;;;3.70;90.30;;;;;;4425644;32;20134;-73
2020/12/07 13:15:57;;;;;;;15.73;6.60;;;3.90;89.80;;;;;;4424699;32;20147;-74
2020/12/07 13:18:26;;;;;;;11.53;6.17;;;4.00;89.10;;;;;;4426209;32;20193;-73
2020/12/07 13:23:38;;;;;;;11.53;6.20;;;4.20;88.30;;;;;;4424742;32;20215;-75
2020/12/07 13:26:14;;;;;;;12.10;6.23;;;4.10;88.30;;;;;;4425446;32;20177;-75